ěÝzenÝ letovÚho provozu ╚eskÚ republiky
Letiste: LKLN Aktualizace: 31.01.2023 17:30:33  UTC
 METAR LKLN 31.01. 17:30 ...
METAR LKLN 311730Z AUTO 25012KT 220V290 9999 -RA SCT019 BKN052 OVC070 02/M01 Q1019=